createdAt,value
2018-06-09T00:00:25.880Z,19.93
2018-06-09T00:02:55.045Z,19.91
2018-06-09T00:05:24.206Z,19.90
2018-06-09T00:07:53.400Z,19.85
2018-06-09T00:10:22.621Z,19.81
2018-06-09T00:12:51.848Z,19.76
2018-06-09T00:15:21.041Z,19.71
2018-06-09T00:17:50.420Z,19.72
2018-06-09T00:20:19.617Z,19.68
2018-06-09T00:22:48.786Z,19.70
2018-06-09T00:25:18.137Z,19.67
2018-06-09T00:27:47.336Z,19.63
2018-06-09T00:30:16.600Z,19.63
2018-06-09T00:32:45.996Z,19.62
2018-06-09T00:35:15.416Z,19.61
2018-06-09T00:37:44.641Z,19.57
2018-06-09T00:40:13.912Z,19.57
2018-06-09T00:42:43.100Z,19.60
2018-06-09T00:45:12.205Z,19.56
2018-06-09T00:47:41.596Z,19.54
2018-06-09T00:50:11.047Z,19.50
2018-06-09T00:52:40.213Z,19.58
2018-06-09T00:55:09.605Z,19.44
2018-06-09T00:57:38.799Z,19.46
2018-06-09T01:00:08.520Z,19.36
2018-06-09T01:02:37.723Z,19.35
2018-06-09T01:05:06.917Z,19.32
2018-06-09T01:07:36.092Z,19.34
2018-06-09T01:10:05.440Z,19.29
2018-06-09T01:12:34.612Z,19.29
2018-06-09T01:15:03.917Z,19.26
2018-06-09T01:17:33.340Z,19.25
2018-06-09T01:20:02.412Z,19.28
2018-06-09T01:22:31.584Z,19.28
2018-06-09T01:25:01.654Z,19.30
2018-06-09T01:27:31.156Z,19.25
2018-06-09T01:30:00.304Z,19.21
2018-06-09T01:32:29.553Z,19.31
2018-06-09T01:34:58.728Z,19.17
2018-06-09T01:37:27.949Z,19.11
2018-06-09T01:39:57.656Z,19.07
2018-06-09T01:42:26.828Z,19.00
2018-06-09T01:44:56.012Z,19.02
2018-06-09T01:47:26.132Z,19.12
2018-06-09T01:49:55.884Z,18.97
2018-06-09T01:52:25.143Z,18.94
2018-06-09T01:54:54.248Z,18.98
2018-06-09T01:57:23.344Z,18.95
2018-06-09T01:59:53.471Z,19.00
2018-06-09T02:02:23.536Z,19.00
2018-06-09T02:04:53.776Z,19.06
2018-06-09T02:07:23.306Z,19.07
2018-06-09T02:09:52.536Z,19.07
2018-06-09T02:12:21.838Z,19.06
2018-06-09T02:14:51.036Z,19.16
2018-06-09T02:17:20.296Z,19.07
2018-06-09T02:19:49.532Z,19.02
2018-06-09T02:22:18.704Z,19.04
2018-06-09T02:24:48.460Z,19.03
2018-06-09T02:27:17.688Z,18.95
2018-06-09T02:29:47.045Z,18.92
2018-06-09T02:32:16.212Z,18.89
2018-06-09T02:34:45.385Z,18.87
2018-06-09T02:37:14.707Z,18.84
2018-06-09T02:39:44.204Z,18.85
2018-06-09T02:42:13.401Z,18.84
2018-06-09T02:44:42.589Z,18.83
2018-06-09T02:47:12.374Z,18.76
2018-06-09T02:49:41.760Z,18.76
2018-06-09T02:52:10.969Z,18.79
2018-06-09T02:54:40.412Z,18.78
2018-06-09T02:57:09.614Z,18.82
2018-06-09T02:59:38.825Z,18.86
2018-06-09T03:02:08.049Z,18.83
2018-06-09T03:04:37.204Z,18.81
2018-06-09T03:07:06.417Z,18.78
2018-06-09T03:09:36.157Z,18.74
2018-06-09T03:12:05.405Z,18.75
2018-06-09T03:14:34.715Z,18.70
2018-06-09T03:17:04.257Z,18.67
2018-06-09T03:19:33.457Z,18.71
2018-06-09T03:22:02.316Z,18.68
2018-06-09T03:24:31.848Z,18.64
2018-06-09T03:27:01.008Z,18.62
2018-06-09T03:29:30.208Z,18.61
2018-06-09T03:31:59.956Z,18.55
2018-06-09T03:34:29.128Z,18.54
2018-06-09T03:36:58.824Z,18.61
2018-06-09T03:39:28.369Z,18.54
2018-06-09T03:41:57.569Z,18.47
2018-06-09T03:44:26.560Z,18.48
2018-06-09T03:46:55.718Z,18.51
2018-06-09T03:49:24.928Z,18.54
2018-06-09T03:51:54.228Z,18.46
2018-06-09T03:54:24.176Z,18.60
2018-06-09T03:56:53.822Z,18.52
2018-06-09T03:59:23.020Z,18.46
2018-06-09T04:01:52.545Z,18.47
2018-06-09T04:04:21.700Z,18.43
2018-06-09T04:06:50.977Z,18.40
2018-06-09T04:09:20.485Z,18.42
2018-06-09T04:11:49.681Z,18.42
2018-06-09T04:14:19.864Z,18.48
2018-06-09T04:16:50.165Z,18.47
2018-06-09T04:19:19.530Z,18.57
2018-06-09T04:21:48.877Z,18.56
2018-06-09T04:24:18.148Z,18.54
2018-06-09T04:26:47.530Z,18.55
2018-06-09T04:29:16.728Z,18.65
2018-06-09T04:31:45.592Z,18.75
2018-06-09T04:34:14.780Z,18.83
2018-06-09T04:36:44.168Z,18.97
2018-06-09T04:39:13.288Z,19.09
2018-06-09T04:41:42.464Z,19.17
2018-06-09T04:44:12.120Z,19.17
2018-06-09T04:46:41.268Z,19.21
2018-06-09T04:49:10.620Z,19.29
2018-06-09T04:51:40.125Z,19.37
2018-06-09T04:54:09.228Z,19.40
2018-06-09T04:56:38.396Z,19.43
2018-06-09T04:59:08.040Z,19.53
2018-06-09T05:01:37.820Z,19.60
2018-06-09T05:04:07.033Z,19.74
2018-06-09T05:06:36.204Z,19.85
2018-06-09T05:09:08.184Z,19.92
2018-06-09T05:11:37.179Z,20.02
2018-06-09T05:14:06.430Z,20.01
2018-06-09T05:16:35.652Z,19.99
2018-06-09T05:19:05.101Z,19.96
2018-06-09T05:21:35.272Z,20.05
2018-06-09T05:24:05.447Z,20.26
2018-06-09T05:26:34.588Z,20.45
2018-06-09T05:29:05.361Z,20.65
2018-06-09T05:31:34.560Z,20.85
2018-06-09T05:34:03.720Z,21.08
2018-06-09T05:36:32.905Z,21.15
2018-06-09T05:39:03.136Z,21.14
2018-06-09T05:41:32.336Z,21.09
2018-06-09T05:44:01.493Z,21.12
2018-06-09T05:46:30.660Z,21.23
2018-06-09T05:48:59.840Z,21.40
2018-06-09T05:51:29.164Z,21.61
2018-06-09T05:53:58.336Z,21.84
2018-06-09T05:56:29.061Z,21.98
2018-06-09T05:58:58.768Z,22.20
2018-06-09T06:01:29.029Z,22.28
2018-06-09T06:03:58.149Z,22.31
2018-06-09T06:06:27.203Z,22.40
2018-06-09T06:08:57.409Z,22.29
2018-06-09T06:11:26.612Z,22.27
2018-06-09T06:13:56.737Z,22.18
2018-06-09T06:16:26.481Z,22.01
2018-06-09T06:18:55.768Z,22.06
2018-06-09T06:21:25.204Z,22.12
2018-06-09T06:23:54.488Z,22.24
2018-06-09T06:26:23.744Z,22.26
2018-06-09T06:28:52.932Z,22.21
2018-06-09T06:31:22.623Z,22.43
2018-06-09T06:33:51.876Z,22.63
2018-06-09T06:36:21.485Z,22.44
2018-06-09T06:38:50.749Z,22.25
2018-06-09T06:41:19.856Z,22.15
2018-06-09T06:43:49.092Z,22.51
2018-06-09T06:46:18.180Z,22.74
2018-06-09T06:48:47.315Z,22.69
2018-06-09T06:51:16.877Z,22.79
2018-06-09T06:53:46.029Z,22.72
2018-06-09T06:56:15.988Z,22.76
2018-06-09T06:58:45.161Z,23.15
2018-06-09T07:01:14.276Z,23.32
2018-06-09T07:03:43.440Z,23.61
2018-06-09T07:06:12.680Z,23.78
2018-06-09T07:08:41.997Z,23.90
2018-06-09T07:11:11.484Z,24.12
2018-06-09T07:13:40.648Z,24.27
2018-06-09T07:16:09.880Z,24.50
2018-06-09T07:18:39.244Z,24.54
2018-06-09T07:21:08.544Z,24.30
2018-06-09T07:23:37.652Z,24.46
2018-06-09T07:26:06.837Z,24.76
2018-06-09T07:28:36.584Z,24.83
2018-06-09T07:31:05.756Z,25.04
2018-06-09T07:33:35.064Z,25.14
2018-06-09T07:36:04.228Z,25.10
2018-06-09T07:38:33.480Z,25.36
2018-06-09T07:41:03.448Z,25.82
2018-06-09T07:43:32.647Z,26.88
2018-06-09T07:46:01.984Z,27.51
2018-06-09T07:48:31.194Z,28.82
2018-06-09T07:51:00.341Z,30.34
2018-06-09T07:53:29.548Z,31.49
2018-06-09T07:55:59.056Z,32.42
2018-06-09T07:58:28.573Z,32.89
2018-06-09T08:00:57.768Z,33.07
2018-06-09T08:03:27.198Z,33.68
2018-06-09T08:05:56.372Z,34.36
2018-06-09T08:08:25.545Z,34.54
2018-06-09T08:10:55.264Z,34.14
2018-06-09T08:13:24.976Z,32.95
2018-06-09T08:15:54.596Z,33.72
2018-06-09T08:18:23.780Z,34.92
2018-06-09T08:20:52.968Z,35.44
2018-06-09T08:23:22.892Z,35.99
2018-06-09T08:25:52.017Z,36.44
2018-06-09T08:28:21.166Z,34.68
2018-06-09T08:30:50.728Z,35.36
2018-06-09T08:33:19.888Z,35.48
2018-06-09T08:35:49.124Z,34.67
2018-06-09T08:38:18.327Z,34.72
2018-06-09T08:40:47.480Z,34.77
2018-06-09T08:43:16.696Z,35.86
2018-06-09T08:45:46.124Z,36.59
2018-06-09T08:48:15.631Z,36.93
2018-06-09T08:50:44.720Z,36.83
2018-06-09T08:53:13.884Z,32.84
2018-06-09T08:55:43.068Z,34.87
2018-06-09T08:58:12.288Z,35.93
2018-06-09T09:00:41.504Z,36.98
2018-06-09T09:03:10.703Z,36.80
2018-06-09T09:05:39.860Z,37.66
2018-06-09T09:08:09.572Z,37.96
2018-06-09T09:10:38.664Z,38.01
2018-06-09T09:13:08.044Z,38.28
2018-06-09T09:15:37.280Z,38.45
2018-06-09T09:18:06.472Z,39.15
2018-06-09T09:20:35.660Z,39.12
2018-06-09T09:23:05.496Z,38.59
2018-06-09T09:25:34.933Z,39.29
2018-06-09T09:28:04.096Z,39.54
2018-06-09T09:30:33.629Z,39.57
2018-06-09T09:33:02.800Z,40.12
2018-06-09T09:35:31.996Z,40.32
2018-06-09T09:38:01.803Z,39.91
2018-06-09T09:40:31.032Z,38.45
2018-06-09T09:43:00.208Z,38.80
2018-06-09T09:45:29.585Z,38.68
2018-06-09T09:47:58.704Z,39.27
2018-06-09T09:50:27.931Z,39.73
2018-06-09T09:52:57.392Z,40.16
2018-06-09T09:55:26.604Z,38.34
2018-06-09T09:58:02.484Z,39.15
2018-06-09T10:00:38.740Z,39.75
2018-06-09T10:03:07.908Z,39.23
2018-06-09T10:05:37.704Z,40.37
2018-06-09T10:08:06.928Z,40.78
2018-06-09T10:10:36.564Z,41.64
2018-06-09T10:13:05.865Z,41.80
2018-06-09T10:15:35.012Z,42.15
2018-06-09T10:18:05.077Z,40.24
2018-06-09T10:20:34.272Z,39.18
2018-06-09T10:23:03.579Z,37.25
2018-06-09T10:25:33.044Z,33.92
2018-06-09T10:28:02.868Z,34.58
2018-06-09T10:30:31.988Z,35.56
2018-06-09T10:33:01.493Z,36.95
2018-06-09T10:35:30.793Z,37.45
2018-06-09T10:38:00.094Z,39.04
2018-06-09T10:40:29.264Z,37.91
2018-06-09T10:42:58.465Z,37.19
2018-06-09T10:45:27.664Z,34.54
2018-06-09T10:47:57.500Z,36.30
2018-06-09T10:50:26.697Z,36.28
2018-06-09T10:52:55.839Z,36.09
2018-06-09T10:55:25.988Z,36.21
2018-06-09T10:57:55.392Z,37.08
2018-06-09T11:00:24.589Z,37.44
2018-06-09T11:02:54.117Z,37.80
2018-06-09T11:05:23.320Z,38.19
2018-06-09T11:07:52.468Z,38.80
2018-06-09T11:10:21.984Z,38.61
2018-06-09T11:12:51.480Z,37.85
2018-06-09T11:15:20.725Z,38.18
2018-06-09T11:17:50.334Z,36.82
2018-06-09T11:20:19.481Z,37.05
2018-06-09T11:22:48.600Z,37.54
2018-06-09T11:25:18.092Z,38.27
2018-06-09T11:27:47.812Z,37.72
2018-06-09T11:30:17.116Z,38.49
2018-06-09T11:32:47.328Z,39.08
2018-06-09T11:35:16.893Z,38.84
2018-06-09T11:37:46.140Z,38.18
2018-06-09T11:40:16.080Z,35.71
2018-06-09T11:42:45.232Z,35.13
2018-06-09T11:45:14.428Z,34.59
2018-06-09T11:47:43.978Z,34.24
2018-06-09T11:50:13.133Z,34.13
2018-06-09T11:52:42.236Z,34.09
2018-06-09T11:55:11.536Z,34.13
2018-06-09T11:57:40.740Z,33.88
2018-06-09T12:00:09.997Z,33.94
2018-06-09T12:02:39.543Z,34.20
2018-06-09T12:05:08.636Z,34.54
2018-06-09T12:07:38.488Z,34.73
2018-06-09T12:10:07.952Z,34.83
2018-06-09T12:12:37.344Z,34.51
2018-06-09T12:15:07.272Z,34.37
2018-06-09T12:17:36.776Z,33.93
2018-06-09T12:20:06.269Z,33.74
2018-06-09T12:22:36.429Z,33.21
2018-06-09T12:25:06.010Z,33.00
2018-06-09T12:27:35.216Z,32.59
2018-06-09T12:30:04.404Z,32.54
2018-06-09T12:32:33.970Z,32.46
2018-06-09T12:35:03.220Z,32.25
2018-06-09T12:37:32.417Z,31.29
2018-06-09T12:40:01.850Z,31.58
2018-06-09T12:42:31.045Z,31.37
2018-06-09T12:45:00.148Z,31.27
2018-06-09T12:47:29.712Z,31.14
2018-06-09T12:49:58.908Z,30.97
2018-06-09T12:52:28.121Z,30.96
2018-06-09T12:54:57.374Z,30.73
2018-06-09T12:57:26.492Z,30.44
2018-06-09T12:59:55.761Z,30.35
2018-06-09T13:02:25.262Z,30.33
2018-06-09T13:04:54.348Z,30.15
2018-06-09T13:07:24.328Z,29.72
2018-06-09T13:09:53.861Z,29.43
2018-06-09T13:12:23.132Z,29.08
2018-06-09T13:14:52.320Z,28.99
2018-06-09T13:17:22.063Z,28.84
2018-06-09T13:19:51.217Z,28.92
2018-06-09T13:22:20.972Z,28.98
2018-06-09T13:24:50.713Z,29.11
2018-06-09T13:27:19.885Z,29.38
2018-06-09T13:29:49.058Z,29.78
2018-06-09T13:32:18.648Z,30.02
2018-06-09T13:34:47.988Z,30.46
2018-06-09T13:37:17.291Z,30.83
2018-06-09T13:39:46.761Z,31.52
2018-06-09T13:42:15.952Z,32.16
2018-06-09T13:44:45.165Z,32.90
2018-06-09T13:47:14.500Z,33.50
2018-06-09T13:49:43.900Z,33.89
2018-06-09T13:52:13.168Z,34.00
2018-06-09T13:54:42.968Z,34.06
2018-06-09T13:57:12.204Z,33.83
2018-06-09T13:59:41.376Z,33.85
2018-06-09T14:02:10.904Z,33.74
2018-06-09T14:04:40.104Z,33.70
2018-06-09T14:07:09.254Z,33.83
2018-06-09T14:09:38.460Z,33.56
2018-06-09T14:12:07.672Z,32.56
2018-06-09T14:14:36.996Z,32.49
2018-06-09T14:17:06.709Z,32.20
2018-06-09T14:19:36.010Z,31.89
2018-06-09T14:22:05.155Z,31.99
2018-06-09T14:24:34.364Z,32.09
2018-06-09T14:27:03.564Z,32.53
2018-06-09T14:29:32.742Z,32.80
2018-06-09T14:32:02.010Z,32.88
2018-06-09T14:34:31.184Z,32.88
2018-06-09T14:37:00.572Z,32.86
2018-06-09T14:39:30.204Z,32.65
2018-06-09T14:41:59.302Z,32.37
2018-06-09T14:44:28.496Z,32.41
2018-06-09T14:46:57.993Z,32.52
2018-06-09T14:49:27.377Z,32.56
2018-06-09T14:51:56.602Z,32.55
2018-06-09T14:54:25.800Z,32.78
2018-06-09T14:56:54.767Z,33.31
2018-06-09T14:59:23.944Z,33.85
2018-06-09T15:01:53.171Z,34.51
2018-06-09T15:04:22.656Z,34.72
2018-06-09T15:06:51.895Z,35.37
2018-06-09T15:09:21.397Z,35.49
2018-06-09T15:11:50.540Z,35.42
2018-06-09T15:14:19.768Z,34.88
2018-06-09T15:16:49.400Z,34.35
2018-06-09T15:19:18.553Z,33.83
2018-06-09T15:21:48.260Z,33.24
2018-06-09T15:24:17.505Z,32.24
2018-06-09T15:26:46.656Z,31.53
2018-06-09T15:29:16.272Z,30.78
2018-06-09T15:31:45.781Z,30.68
2018-06-09T15:34:14.988Z,30.33
2018-06-09T15:36:44.164Z,30.15
2018-06-09T15:39:13.762Z,29.92
2018-06-09T15:41:42.908Z,29.58
2018-06-09T15:44:12.089Z,29.04
2018-06-09T15:46:41.588Z,28.54
2018-06-09T15:49:10.728Z,28.51
2018-06-09T15:51:40.014Z,28.23
2018-06-09T15:54:10.033Z,28.05
2018-06-09T15:56:39.181Z,27.94
2018-06-09T15:59:08.796Z,27.82
2018-06-09T16:01:38.304Z,27.65
2018-06-09T16:04:07.396Z,27.54
2018-06-09T16:06:36.578Z,27.50
2018-06-09T16:09:08.162Z,27.43
2018-06-09T16:11:37.256Z,27.35
2018-06-09T16:14:06.453Z,27.29
2018-06-09T16:16:35.985Z,27.10
2018-06-09T16:19:05.239Z,26.99
2018-06-09T16:21:34.352Z,26.76
2018-06-09T16:24:03.889Z,26.69
2018-06-09T16:26:33.028Z,26.55
2018-06-09T16:29:02.260Z,26.48
2018-06-09T16:31:31.429Z,26.41
2018-06-09T16:34:00.684Z,26.37
2018-06-09T16:36:29.828Z,26.32
2018-06-09T16:38:59.081Z,26.11
2018-06-09T16:41:28.540Z,25.56
2018-06-09T16:43:57.736Z,25.04
2018-06-09T16:46:26.936Z,24.66
2018-06-09T16:48:56.656Z,24.28
2018-06-09T16:51:25.856Z,24.05
2018-06-09T16:53:55.076Z,23.85
2018-06-09T16:56:24.473Z,23.64
2018-06-09T16:58:53.478Z,23.45
2018-06-09T17:01:22.880Z,23.10
2018-06-09T17:03:52.996Z,22.85
2018-06-09T17:06:23.296Z,22.59
2018-06-09T17:08:52.472Z,22.49
2018-06-09T17:11:21.668Z,22.47
2018-06-09T17:13:50.993Z,22.40
2018-06-09T17:16:20.192Z,22.35
2018-06-09T17:18:49.516Z,22.38
2018-06-09T17:21:18.676Z,22.30
2018-06-09T17:23:47.885Z,22.15
2018-06-09T17:26:17.072Z,22.16
2018-06-09T17:28:46.288Z,22.31
2018-06-09T17:31:15.772Z,22.37
2018-06-09T17:33:45.010Z,22.45
2018-06-09T17:36:14.162Z,22.53
2018-06-09T17:38:43.356Z,22.25
2018-06-09T17:41:12.548Z,21.92
2018-06-09T17:43:41.792Z,21.79
2018-06-09T17:46:10.960Z,21.64
2018-06-09T17:48:42.554Z,21.66
2018-06-09T17:51:11.764Z,21.70
2018-06-09T17:53:40.824Z,21.81
2018-06-09T17:56:10.340Z,21.90
2018-06-09T17:58:39.608Z,22.04
2018-06-09T18:01:08.924Z,22.06
2018-06-09T18:03:38.122Z,22.18
2018-06-09T18:06:07.348Z,22.23
2018-06-09T18:08:36.578Z,22.15
2018-06-09T18:11:06.640Z,22.16
2018-06-09T18:13:35.836Z,22.22
2018-06-09T18:16:05.012Z,22.31
2018-06-09T18:18:34.976Z,22.44
2018-06-09T18:21:04.172Z,22.49
2018-06-09T18:23:33.441Z,22.55
2018-06-09T18:26:02.668Z,22.56
2018-06-09T18:28:31.820Z,22.56
2018-06-09T18:31:01.728Z,22.53
2018-06-09T18:33:31.087Z,22.46
2018-06-09T18:36:00.357Z,22.31
2018-06-09T18:38:29.543Z,22.27
2018-06-09T18:40:59.501Z,22.26
2018-06-09T18:43:28.640Z,22.19
2018-06-09T18:45:57.834Z,22.18
2018-06-09T18:48:27.396Z,22.11
2018-06-09T18:50:56.569Z,22.08
2018-06-09T18:53:25.756Z,22.06
2018-06-09T18:55:55.156Z,22.06
2018-06-09T18:58:24.560Z,22.04
2018-06-09T19:00:53.992Z,21.90
2018-06-09T19:03:23.468Z,21.82
2018-06-09T19:05:53.216Z,21.83
2018-06-09T19:08:23.232Z,21.72
2018-06-09T19:10:52.200Z,21.67
2018-06-09T19:13:21.384Z,21.65
2018-06-09T19:15:50.620Z,21.72
2018-06-09T19:18:19.792Z,21.63
2018-06-09T19:20:49.080Z,21.56
2018-06-09T19:23:18.583Z,21.46
2018-06-09T19:25:48.388Z,21.33
2018-06-09T19:28:17.584Z,21.32
2018-06-09T19:30:46.805Z,21.29
2018-06-09T19:33:16.255Z,21.18
2018-06-09T19:35:45.392Z,21.21
2018-06-09T19:38:15.340Z,21.22
2018-06-09T19:40:44.668Z,21.25
2018-06-09T19:43:14.420Z,21.27
2018-06-09T19:45:43.924Z,21.34
2018-06-09T19:48:13.123Z,21.38
2018-06-09T19:50:42.256Z,21.38
2018-06-09T19:53:11.415Z,21.37
2018-06-09T19:55:40.629Z,21.30
2018-06-09T19:58:09.916Z,21.28
2018-06-09T20:00:39.419Z,21.29
2018-06-09T20:03:08.839Z,21.21
2018-06-09T20:05:38.013Z,21.16
2018-06-09T20:08:07.656Z,21.17
2018-06-09T20:10:37.064Z,21.18
2018-06-09T20:13:06.268Z,21.15
2018-06-09T20:15:35.456Z,21.17
2018-06-09T20:18:05.448Z,21.15
2018-06-09T20:20:35.500Z,21.09
2018-06-09T20:23:04.592Z,21.05
2018-06-09T20:25:33.766Z,20.98
2018-06-09T20:28:03.372Z,21.03
2018-06-09T20:30:32.554Z,20.89
2018-06-09T20:33:01.820Z,20.82
2018-06-09T20:35:31.008Z,20.77
2018-06-09T20:38:00.185Z,20.76
2018-06-09T20:40:29.393Z,20.73
2018-06-09T20:42:58.596Z,20.67
2018-06-09T20:45:29.165Z,20.62
2018-06-09T20:47:59.288Z,20.52
2018-06-09T20:50:28.500Z,20.50
2018-06-09T20:52:58.104Z,20.49
2018-06-09T20:55:27.648Z,20.43
2018-06-09T20:57:56.804Z,20.35
2018-06-09T21:00:26.049Z,20.24
2018-06-09T21:02:55.509Z,20.18
2018-06-09T21:05:24.696Z,20.14
2018-06-09T21:07:53.887Z,20.07
2018-06-09T21:10:23.148Z,20.07
2018-06-09T21:12:52.548Z,20.05
2018-06-09T21:15:21.817Z,20.04
2018-06-09T21:17:51.924Z,20.04
2018-06-09T21:20:21.160Z,20.08
2018-06-09T21:22:50.332Z,20.06
2018-06-09T21:25:19.556Z,20.17
2018-06-09T21:27:53.883Z,20.20
2018-06-09T21:30:28.449Z,20.06
2018-06-09T21:33:02.875Z,19.86
2018-06-09T21:35:51.164Z,19.78
2018-06-09T21:38:25.488Z,19.81
2018-06-09T21:41:00.376Z,19.84
2018-06-09T21:43:33.912Z,19.87
2018-06-09T21:46:06.040Z,19.90
2018-06-09T21:48:35.222Z,19.86
2018-06-09T21:51:04.476Z,19.85
2018-06-09T21:53:34.033Z,19.85
2018-06-09T21:56:03.228Z,19.82
2018-06-09T21:58:32.944Z,19.84
2018-06-09T22:01:02.560Z,19.82
2018-06-09T22:03:31.977Z,19.79
2018-06-09T22:06:01.148Z,19.86
2018-06-09T22:08:30.810Z,19.76
2018-06-09T22:11:00.010Z,19.80
2018-06-09T22:13:29.331Z,19.75
2018-06-09T22:15:58.801Z,19.72
2018-06-09T22:18:28.072Z,19.76
2018-06-09T22:20:57.267Z,19.82
2018-06-09T22:23:26.772Z,19.80
2018-06-09T22:25:59.700Z,19.80
2018-06-09T22:28:29.425Z,19.80
2018-06-09T22:30:58.475Z,19.75
2018-06-09T22:33:28.062Z,19.76
2018-06-09T22:35:58.096Z,19.77
2018-06-09T22:38:27.944Z,19.85
2018-06-09T22:40:57.212Z,19.81
2018-06-09T22:43:26.744Z,19.81
2018-06-09T22:45:55.917Z,19.80
2018-06-09T22:48:25.700Z,19.62
2018-06-09T22:50:54.928Z,19.61
2018-06-09T22:53:24.152Z,19.60
2018-06-09T22:55:53.144Z,19.67
2018-06-09T22:58:22.508Z,19.65
2018-06-09T23:00:52.348Z,19.56
2018-06-09T23:03:22.468Z,19.54
2018-06-09T23:05:51.371Z,19.52
2018-06-09T23:08:20.364Z,19.49
2018-06-09T23:10:49.832Z,19.48
2018-06-09T23:13:19.041Z,19.48
2018-06-09T23:15:48.240Z,19.40
2018-06-09T23:18:17.728Z,19.42
2018-06-09T23:20:46.965Z,19.40
2018-06-09T23:23:16.112Z,19.42
2018-06-09T23:25:46.071Z,19.34
2018-06-09T23:28:15.376Z,19.28
2018-06-09T23:30:44.561Z,19.25
2018-06-09T23:33:14.754Z,19.25
2018-06-09T23:35:43.884Z,19.27
2018-06-09T23:38:13.064Z,19.26
2018-06-09T23:40:42.288Z,19.30
2018-06-09T23:43:11.461Z,19.22
2018-06-09T23:45:40.644Z,19.28
2018-06-09T23:48:10.089Z,19.27
2018-06-09T23:50:39.256Z,19.28
2018-06-09T23:53:08.634Z,19.29
2018-06-09T23:55:37.849Z,19.35
2018-06-09T23:58:07.673Z,19.37
